Aviation Digital Data Service (ADDS)

Output produced by METARs form (1526 UTC 17 April 2014)
found at http://www.aviationweather.gov/adds/metars/
 
KEWR 171417Z 1714/1818 03010KT P6SM SCT250 
     FM171700 09013KT P6SM FEW040 SCT250 
     FM180200 06010KT P6SM FEW020 BKN250 
     FM180900 04006KT P6SM BKN020 BKN250 
     FM181400 12008KT P6SM SCT020 BKN250